createdAt,value
2023-02-06T00:01:47.316Z,-2.44
2023-02-06T00:04:14.750Z,-2.34
2023-02-06T00:06:42.500Z,-2.33
2023-02-06T00:09:10.083Z,-2.38
2023-02-06T00:11:39.615Z,-2.38
2023-02-06T00:14:07.151Z,-2.30
2023-02-06T00:16:35.568Z,-2.30
2023-02-06T00:19:04.958Z,-2.60
2023-02-06T00:21:33.404Z,-2.65
2023-02-06T00:24:03.800Z,-2.54
2023-02-06T00:26:31.697Z,-2.58
2023-02-06T00:28:59.146Z,-2.79
2023-02-06T00:31:26.462Z,-2.50
2023-02-06T00:33:53.606Z,-2.76
2023-02-06T00:36:20.887Z,-2.81
2023-02-06T00:38:48.097Z,-2.72
2023-02-06T00:41:17.552Z,-2.81
2023-02-06T00:43:47.271Z,-2.66
2023-02-06T00:46:14.566Z,-2.68
2023-02-06T00:48:42.207Z,-2.79
2023-02-06T00:51:09.605Z,-2.81
2023-02-06T00:53:40.030Z,-2.75
2023-02-06T00:56:07.195Z,-2.97
2023-02-06T00:58:34.537Z,-2.93
2023-02-06T01:01:01.825Z,-2.64
2023-02-06T01:03:31.331Z,-2.62
2023-02-06T01:06:00.798Z,-2.73
2023-02-06T01:08:30.203Z,-2.62
2023-02-06T01:11:08.695Z,-2.92
2023-02-06T01:13:35.898Z,-2.69
2023-02-06T01:16:03.232Z,-2.97
2023-02-06T01:18:32.656Z,-2.83
2023-02-06T01:21:02.022Z,-2.88
2023-02-06T01:23:29.910Z,-3.04
2023-02-06T01:25:59.514Z,-3.11
2023-02-06T01:28:27.172Z,-2.90
2023-02-06T01:30:54.775Z,-3.13
2023-02-06T01:33:26.520Z,-3.33
2023-02-06T01:35:56.943Z,-3.14
2023-02-06T01:38:26.317Z,-3.24
2023-02-06T01:40:59.942Z,-3.33
2023-02-06T01:43:33.881Z,-3.23
2023-02-06T01:46:01.696Z,-3.09
2023-02-06T01:48:45.588Z,-3.07
2023-02-06T01:51:19.853Z,-3.09
2023-02-06T01:53:51.294Z,-3.14
2023-02-06T01:56:20.475Z,-3.10
2023-02-06T01:58:58.054Z,-3.14
2023-02-06T02:01:25.349Z,-3.33
2023-02-06T02:03:56.271Z,-3.37
2023-02-06T02:06:26.722Z,-3.30
2023-02-06T02:08:58.196Z,-3.33
2023-02-06T02:11:33.542Z,-3.31
2023-02-06T02:14:03.545Z,-3.33
2023-02-06T02:17:08.652Z,-3.23
2023-02-06T02:20:14.280Z,-3.47
2023-02-06T02:22:44.899Z,-3.37
2023-02-06T02:25:40.453Z,-3.44
2023-02-06T02:28:32.592Z,-3.33
2023-02-06T02:31:18.108Z,-3.74
2023-02-06T02:34:00.548Z,-3.44
2023-02-06T02:36:32.329Z,-3.37
2023-02-06T02:39:21.587Z,-3.41
2023-02-06T02:42:31.922Z,-3.40
2023-02-06T02:45:09.447Z,-3.46
2023-02-06T02:47:46.068Z,-3.37
2023-02-06T02:50:13.670Z,-3.51
2023-02-06T02:52:40.939Z,-3.57
2023-02-06T02:55:22.972Z,-3.57
2023-02-06T02:58:02.062Z,-3.37
2023-02-06T03:00:36.917Z,-3.36
2023-02-06T03:03:06.322Z,-3.40
2023-02-06T03:05:38.198Z,-3.62
2023-02-06T03:08:27.292Z,-3.52
2023-02-06T03:11:12.373Z,-3.58
2023-02-06T03:14:06.877Z,-3.74
2023-02-06T03:16:42.538Z,-3.67
2023-02-06T03:19:13.565Z,-3.86
2023-02-06T03:21:42.891Z,-3.76
2023-02-06T03:24:21.450Z,-3.79
2023-02-06T03:26:56.672Z,-3.69
2023-02-06T03:29:24.666Z,-3.62
2023-02-06T03:32:04.894Z,-3.83
2023-02-06T03:34:43.557Z,-3.74
2023-02-06T03:37:37.179Z,-3.52
2023-02-06T03:40:05.964Z,-3.82
2023-02-06T03:42:35.865Z,-3.67
2023-02-06T03:45:07.396Z,-3.51
2023-02-06T03:47:37.977Z,-3.51
2023-02-06T03:50:10.700Z,-3.55
2023-02-06T03:52:40.857Z,-3.59
2023-02-06T03:55:13.979Z,-3.71
2023-02-06T03:57:45.000Z,-3.52
2023-02-06T04:00:12.778Z,-3.52
2023-02-06T04:02:40.827Z,-3.65
2023-02-06T04:05:11.718Z,-3.72
2023-02-06T04:07:41.326Z,-3.78
2023-02-06T04:10:08.614Z,-3.71
2023-02-06T04:12:36.199Z,-3.52
2023-02-06T04:15:04.030Z,-3.58
2023-02-06T04:17:49.834Z,-3.54
2023-02-06T04:20:20.941Z,-3.82
2023-02-06T04:22:50.421Z,-3.64
2023-02-06T04:25:17.735Z,-3.57
2023-02-06T04:28:12.114Z,-3.59
2023-02-06T04:30:44.429Z,-3.75
2023-02-06T04:33:11.618Z,-3.71
2023-02-06T04:35:38.831Z,-3.74
2023-02-06T04:38:06.033Z,-3.64
2023-02-06T04:40:33.167Z,-3.75
2023-02-06T04:43:02.462Z,-3.72
2023-02-06T04:45:31.838Z,-3.76
2023-02-06T04:47:59.590Z,-3.78
2023-02-06T04:50:32.369Z,-3.93
2023-02-06T04:53:00.017Z,-3.81
2023-02-06T04:55:30.338Z,-3.99
2023-02-06T04:57:59.802Z,-4.09
2023-02-06T05:00:26.959Z,-4.10
2023-02-06T05:02:54.366Z,-4.10
2023-02-06T05:05:21.588Z,-4.13
2023-02-06T05:07:48.763Z,-4.18
2023-02-06T05:10:18.353Z,-4.06
2023-02-06T05:12:47.085Z,-3.97
2023-02-06T05:15:16.396Z,-4.28
2023-02-06T05:17:45.639Z,-4.18
2023-02-06T05:20:12.824Z,-4.10
2023-02-06T05:22:40.050Z,-4.20
2023-02-06T05:25:10.368Z,-4.06
2023-02-06T05:27:39.668Z,-4.27
2023-02-06T05:30:10.758Z,-4.13
2023-02-06T05:32:38.026Z,-4.21
2023-02-06T05:35:08.539Z,-4.05
2023-02-06T05:37:38.602Z,-3.92
2023-02-06T05:40:06.771Z,-3.97
2023-02-06T05:42:34.131Z,-4.05
2023-02-06T05:45:01.429Z,-4.14
2023-02-06T05:47:31.048Z,-3.96
2023-02-06T05:50:00.559Z,-3.88
2023-02-06T05:52:27.810Z,-3.82
2023-02-06T05:54:55.030Z,-3.82
2023-02-06T05:57:22.214Z,-3.85
2023-02-06T05:59:50.875Z,-3.86
2023-02-06T06:02:18.191Z,-4.06
2023-02-06T06:04:45.757Z,-4.00
2023-02-06T06:07:12.948Z,-3.89
2023-02-06T06:09:40.449Z,-3.96
2023-02-06T06:12:07.804Z,-3.90
2023-02-06T06:14:37.404Z,-3.83
2023-02-06T06:17:07.198Z,-4.07
2023-02-06T06:19:34.390Z,-4.09
2023-02-06T06:22:01.748Z,-3.97
2023-02-06T06:24:28.980Z,-3.83
2023-02-06T06:26:59.557Z,-3.75
2023-02-06T06:29:29.294Z,-3.46
2023-02-06T06:31:56.788Z,-3.83
2023-02-06T06:34:24.049Z,-3.79
2023-02-06T06:36:53.511Z,-3.75
2023-02-06T06:39:20.751Z,-3.69
2023-02-06T06:41:47.955Z,-3.46
2023-02-06T06:44:15.123Z,-3.27
2023-02-06T06:46:42.345Z,-3.36
2023-02-06T06:49:09.526Z,-3.23
2023-02-06T06:51:36.713Z,-3.33
2023-02-06T06:54:06.240Z,-3.20
2023-02-06T06:56:35.912Z,-3.38
2023-02-06T06:59:05.593Z,-3.31
2023-02-06T07:01:32.897Z,-3.03
2023-02-06T07:04:00.909Z,-3.27
2023-02-06T07:06:28.161Z,-3.24
2023-02-06T07:08:55.426Z,-3.17
2023-02-06T07:11:24.265Z,-3.00
2023-02-06T07:13:51.743Z,-2.83
2023-02-06T07:16:21.182Z,-2.83
2023-02-06T07:18:48.448Z,-2.81
2023-02-06T07:21:19.881Z,-2.78
2023-02-06T07:23:49.336Z,-2.50
2023-02-06T07:26:16.511Z,-2.38
2023-02-06T07:28:43.753Z,-2.31
2023-02-06T07:31:10.977Z,-2.36
2023-02-06T07:33:38.237Z,-2.36
2023-02-06T07:36:05.653Z,-2.14
2023-02-06T07:38:34.970Z,-2.06
2023-02-06T07:41:02.792Z,-1.90
2023-02-06T07:43:30.898Z,-1.89
2023-02-06T07:46:02.430Z,-2.06
2023-02-06T07:48:33.366Z,-1.79
2023-02-06T07:51:05.371Z,-1.71
2023-02-06T07:53:32.566Z,-1.66
2023-02-06T07:56:01.086Z,-1.52
2023-02-06T07:58:30.951Z,-1.54
2023-02-06T08:01:03.701Z,-1.55
2023-02-06T08:03:31.123Z,-1.37
2023-02-06T08:06:00.764Z,-1.21
2023-02-06T08:08:28.078Z,-1.16
2023-02-06T08:10:55.217Z,-1.33
2023-02-06T08:13:22.424Z,-1.38
2023-02-06T08:15:49.746Z,-1.27
2023-02-06T08:18:17.074Z,-1.18
2023-02-06T08:20:46.561Z,-1.17
2023-02-06T08:23:13.763Z,-1.08
2023-02-06T08:25:40.913Z,-1.21
2023-02-06T08:28:08.199Z,-1.13
2023-02-06T08:30:37.017Z,-1.18
2023-02-06T08:33:04.357Z,-1.18
2023-02-06T08:35:31.484Z,-1.14
2023-02-06T08:37:58.727Z,-1.07
2023-02-06T08:40:25.888Z,-1.00
2023-02-06T08:42:53.075Z,-0.96
2023-02-06T08:45:20.282Z,-0.90
2023-02-06T08:47:47.455Z,-0.76
2023-02-06T08:50:14.776Z,-0.90
2023-02-06T08:52:42.075Z,-0.87
2023-02-06T08:55:09.214Z,-0.66
2023-02-06T08:57:36.403Z,-0.75
2023-02-06T09:00:04.950Z,-0.82
2023-02-06T09:02:33.050Z,-0.66
2023-02-06T09:05:00.220Z,-0.66
2023-02-06T09:07:27.443Z,-0.66
2023-02-06T09:09:54.589Z,-0.69
2023-02-06T09:12:21.825Z,-0.55
2023-02-06T09:14:49.742Z,-0.51
2023-02-06T09:17:17.190Z,-0.62
2023-02-06T09:19:44.364Z,-0.54
2023-02-06T09:22:13.903Z,-0.54
2023-02-06T09:24:44.243Z,-0.35
2023-02-06T09:27:11.485Z,-0.51
2023-02-06T09:29:38.654Z,-0.32
2023-02-06T09:32:05.831Z,-0.22
2023-02-06T09:34:33.426Z,-0.10
2023-02-06T09:37:05.231Z,-0.01
2023-02-06T09:39:33.074Z,0.03
2023-02-06T09:42:07.375Z,0.03
2023-02-06T09:44:39.262Z,-0.20
2023-02-06T09:47:26.171Z,-0.01
2023-02-06T09:49:58.767Z,-0.01
2023-02-06T09:52:37.849Z,-0.11
2023-02-06T09:55:10.772Z,0.08
2023-02-06T09:58:07.664Z,0.00
2023-02-06T10:00:43.959Z,0.06
2023-02-06T10:03:43.733Z,0.07
2023-02-06T10:06:19.910Z,0.01
2023-02-06T10:08:56.926Z,0.06
2023-02-06T10:11:57.730Z,0.41
2023-02-06T10:14:32.033Z,0.13
2023-02-06T10:17:21.780Z,-0.01
2023-02-06T10:19:57.631Z,0.18
2023-02-06T10:22:36.239Z,0.40
2023-02-06T10:25:36.606Z,0.44
2023-02-06T10:28:27.057Z,0.22
2023-02-06T10:31:25.194Z,0.34
2023-02-06T10:34:01.476Z,0.51
2023-02-06T10:36:49.979Z,0.45
2023-02-06T10:39:31.507Z,0.28
2023-02-06T10:42:19.487Z,0.54
2023-02-06T10:45:21.885Z,0.62
2023-02-06T10:47:55.796Z,0.75
2023-02-06T10:50:41.712Z,0.65
2023-02-06T10:53:34.124Z,0.65
2023-02-06T10:56:14.303Z,0.69
2023-02-06T10:59:07.713Z,0.86
2023-02-06T11:01:41.848Z,0.89
2023-02-06T11:04:21.688Z,1.06
2023-02-06T11:06:57.488Z,0.64
2023-02-06T11:09:26.822Z,0.72
2023-02-06T11:11:59.714Z,1.03
2023-02-06T11:14:37.453Z,1.03
2023-02-06T11:17:04.774Z,0.85
2023-02-06T11:19:44.494Z,1.03
2023-02-06T11:22:13.025Z,0.87
2023-02-06T11:24:59.383Z,0.76
2023-02-06T11:27:27.586Z,0.79
2023-02-06T11:30:06.579Z,0.83
2023-02-06T11:32:40.779Z,1.00
2023-02-06T11:35:23.554Z,0.85
2023-02-06T11:37:55.824Z,1.28
2023-02-06T11:40:27.406Z,1.07
2023-02-06T11:43:10.033Z,1.04
2023-02-06T11:45:37.624Z,0.99
2023-02-06T11:48:07.839Z,1.03
2023-02-06T11:50:37.785Z,1.07
2023-02-06T11:53:11.418Z,1.00
2023-02-06T11:55:40.652Z,1.20
2023-02-06T11:58:13.710Z,1.13
2023-02-06T12:00:56.159Z,1.51
2023-02-06T12:03:30.930Z,1.35
2023-02-06T12:06:06.775Z,1.28
2023-02-06T12:09:01.867Z,1.61
2023-02-06T12:11:31.914Z,1.48
2023-02-06T12:14:09.267Z,1.14
2023-02-06T12:16:39.705Z,1.00
2023-02-06T12:19:16.891Z,1.44
2023-02-06T12:21:51.791Z,1.47
2023-02-06T12:24:24.801Z,1.56
2023-02-06T12:26:54.632Z,1.48
2023-02-06T12:29:37.395Z,1.55
2023-02-06T12:32:14.923Z,1.58
2023-02-06T12:34:53.771Z,1.44
2023-02-06T12:37:43.642Z,1.42
2023-02-06T12:40:31.862Z,1.48
2023-02-06T12:43:02.987Z,1.37
2023-02-06T12:45:39.539Z,1.40
2023-02-06T12:48:30.766Z,1.27
2023-02-06T12:51:21.536Z,1.58
2023-02-06T12:54:12.703Z,1.37
2023-02-06T12:56:47.813Z,1.30
2023-02-06T12:59:58.347Z,1.16
2023-02-06T13:03:03.584Z,1.44
2023-02-06T13:05:57.653Z,1.41
2023-02-06T13:08:28.049Z,1.28
2023-02-06T13:11:06.059Z,1.03
2023-02-06T13:13:36.892Z,1.17
2023-02-06T13:16:07.359Z,1.24
2023-02-06T13:19:01.364Z,1.26
2023-02-06T13:21:32.483Z,1.01
2023-02-06T13:24:02.457Z,1.10
2023-02-06T13:27:12.138Z,1.24
2023-02-06T13:29:45.259Z,1.44
2023-02-06T13:32:12.504Z,1.35
2023-02-06T13:34:48.723Z,1.37
2023-02-06T13:37:34.221Z,1.14
2023-02-06T13:40:32.305Z,1.00
2023-02-06T13:43:11.386Z,1.14
2023-02-06T13:45:50.593Z,1.28
2023-02-06T13:48:41.501Z,1.10
2023-02-06T13:51:30.016Z,1.03
2023-02-06T13:54:03.123Z,1.13
2023-02-06T13:56:41.873Z,1.19
2023-02-06T13:59:17.773Z,1.13
2023-02-06T14:01:45.437Z,1.07
2023-02-06T14:04:23.326Z,1.23
2023-02-06T14:07:07.957Z,1.38
2023-02-06T14:09:53.629Z,1.37
2023-02-06T14:12:35.676Z,0.99
2023-02-06T14:15:25.830Z,1.14
2023-02-06T14:18:32.963Z,1.13
2023-02-06T14:21:06.453Z,0.95
2023-02-06T14:23:39.610Z,0.86
2023-02-06T14:26:45.025Z,0.72
2023-02-06T14:29:15.288Z,0.85
2023-02-06T14:32:06.737Z,0.95
2023-02-06T14:34:52.258Z,0.95
2023-02-06T14:37:57.222Z,0.77
2023-02-06T14:40:26.902Z,0.82
2023-02-06T14:42:58.143Z,0.93
2023-02-06T14:45:41.678Z,1.00
2023-02-06T14:48:48.057Z,0.73
2023-02-06T14:51:26.724Z,0.70
2023-02-06T14:54:01.626Z,0.82
2023-02-06T14:56:31.862Z,0.76
2023-02-06T14:59:29.211Z,0.66
2023-02-06T15:02:11.027Z,0.77
2023-02-06T15:04:46.703Z,0.96
2023-02-06T15:07:27.375Z,0.54
2023-02-06T15:10:23.758Z,0.64
2023-02-06T15:12:52.767Z,0.49
2023-02-06T15:15:25.148Z,0.72
2023-02-06T15:18:03.120Z,0.68
2023-02-06T15:20:36.444Z,0.56
2023-02-06T15:23:17.584Z,0.58
2023-02-06T15:25:59.113Z,0.37
2023-02-06T15:28:30.966Z,0.42
2023-02-06T15:31:00.272Z,0.44
2023-02-06T15:33:31.026Z,0.55
2023-02-06T15:36:00.242Z,0.52
2023-02-06T15:38:28.729Z,0.56
2023-02-06T15:41:00.037Z,0.61
2023-02-06T15:43:28.031Z,0.49
2023-02-06T15:45:59.807Z,0.31
2023-02-06T15:48:52.907Z,0.42
2023-02-06T15:51:38.315Z,0.38
2023-02-06T15:54:27.068Z,0.22
2023-02-06T15:57:17.335Z,0.27
2023-02-06T15:59:45.462Z,0.28
2023-02-06T16:02:30.077Z,0.14
2023-02-06T16:04:57.595Z,0.21
2023-02-06T16:07:27.648Z,0.07
2023-02-06T16:10:04.015Z,-0.04
2023-02-06T16:12:42.300Z,-0.06
2023-02-06T16:15:35.656Z,0.03
2023-02-06T16:18:38.719Z,0.14
2023-02-06T16:21:12.675Z,0.17
2023-02-06T16:23:59.282Z,0.13
2023-02-06T16:26:29.104Z,0.00
2023-02-06T16:29:03.576Z,0.00
2023-02-06T16:31:34.278Z,-0.07
2023-02-06T16:34:03.415Z,0.01
2023-02-06T16:36:32.407Z,0.04
2023-02-06T16:39:04.393Z,-0.07
2023-02-06T16:41:39.054Z,-0.11
2023-02-06T16:44:15.621Z,-0.03
2023-02-06T16:46:43.635Z,-0.09
2023-02-06T16:49:13.372Z,-0.18
2023-02-06T16:51:42.678Z,-0.10
2023-02-06T16:54:19.842Z,-0.24
2023-02-06T16:56:47.547Z,-0.18
2023-02-06T16:59:14.737Z,-0.25
2023-02-06T17:01:42.230Z,-0.32
2023-02-06T17:04:09.407Z,-0.37
2023-02-06T17:06:41.583Z,-0.64
2023-02-06T17:09:17.413Z,-0.42
2023-02-06T17:11:49.481Z,-0.54
2023-02-06T17:14:16.650Z,-0.57
2023-02-06T17:16:43.954Z,-0.61
2023-02-06T17:19:15.805Z,-0.54
2023-02-06T17:21:45.413Z,-0.47
2023-02-06T17:24:15.058Z,-0.49
2023-02-06T17:26:42.269Z,-0.44
2023-02-06T17:29:12.905Z,-0.55
2023-02-06T17:31:40.211Z,-0.49
2023-02-06T17:34:07.356Z,-0.42
2023-02-06T17:36:39.619Z,-0.42
2023-02-06T17:39:07.495Z,-0.40
2023-02-06T17:41:37.025Z,-0.48
2023-02-06T17:44:04.722Z,-0.42
2023-02-06T17:46:34.084Z,-0.52
2023-02-06T17:49:01.304Z,-0.52
2023-02-06T17:51:28.450Z,-0.51
2023-02-06T17:53:59.052Z,-0.54
2023-02-06T17:56:26.280Z,-0.57
2023-02-06T17:58:53.453Z,-0.54
2023-02-06T18:01:23.112Z,-0.59
2023-02-06T18:03:51.064Z,-0.62
2023-02-06T18:06:19.543Z,-0.59
2023-02-06T18:08:47.451Z,-0.65
2023-02-06T18:11:20.199Z,-0.79
2023-02-06T18:13:48.989Z,-0.90
2023-02-06T18:16:19.805Z,-0.90
2023-02-06T18:18:48.389Z,-0.90
2023-02-06T18:21:16.638Z,-0.90
2023-02-06T18:23:43.799Z,-0.86
2023-02-06T18:26:11.883Z,-0.82
2023-02-06T18:28:39.597Z,-0.89
2023-02-06T18:31:21.485Z,-0.99
2023-02-06T18:33:48.736Z,-1.01
2023-02-06T18:36:17.242Z,-1.14
2023-02-06T18:38:47.088Z,-1.17
2023-02-06T18:41:33.095Z,-1.24
2023-02-06T18:44:09.142Z,-1.18
2023-02-06T18:46:38.832Z,-1.10
2023-02-06T18:49:06.656Z,-1.08
2023-02-06T18:51:36.107Z,-1.10
2023-02-06T18:54:03.594Z,-1.23
2023-02-06T18:56:31.027Z,-1.17
2023-02-06T18:58:58.156Z,-1.17
2023-02-06T19:01:27.854Z,-1.16
2023-02-06T19:03:58.304Z,-1.27
2023-02-06T19:06:31.849Z,-1.30
2023-02-06T19:09:02.202Z,-1.28
2023-02-06T19:11:31.542Z,-1.30
2023-02-06T19:14:00.930Z,-1.28
2023-02-06T19:16:28.547Z,-1.26
2023-02-06T19:18:56.245Z,-1.30
2023-02-06T19:21:25.878Z,-1.20
2023-02-06T19:23:58.556Z,-1.30
2023-02-06T19:26:26.713Z,-1.44
2023-02-06T19:28:54.365Z,-1.28
2023-02-06T19:31:24.946Z,-1.40
2023-02-06T19:33:57.975Z,-1.35
2023-02-06T19:36:26.950Z,-1.31
2023-02-06T19:38:59.671Z,-1.37
2023-02-06T19:41:29.267Z,-1.50
2023-02-06T19:43:57.836Z,-1.48
2023-02-06T19:46:26.861Z,-1.58
2023-02-06T19:48:55.343Z,-1.52
2023-02-06T19:51:26.154Z,-1.61
2023-02-06T19:53:55.307Z,-1.74
2023-02-06T19:56:39.286Z,-1.78
2023-02-06T19:59:18.425Z,-1.65
2023-02-06T20:01:54.116Z,-1.72
2023-02-06T20:04:24.803Z,-1.79
2023-02-06T20:06:52.010Z,-1.85
2023-02-06T20:09:20.968Z,-2.00
2023-02-06T20:11:51.612Z,-1.92
2023-02-06T20:14:19.103Z,-1.85
2023-02-06T20:16:49.391Z,-1.87
2023-02-06T20:19:20.445Z,-1.94
2023-02-06T20:21:50.408Z,-1.89
2023-02-06T20:24:23.938Z,-1.82
2023-02-06T20:26:56.015Z,-1.83
2023-02-06T20:29:32.492Z,-1.82
2023-02-06T20:32:00.485Z,-1.94
2023-02-06T20:34:27.944Z,-1.87
2023-02-06T20:36:56.021Z,-1.87
2023-02-06T20:39:23.761Z,-1.94
2023-02-06T20:41:53.524Z,-1.92
2023-02-06T20:44:20.807Z,-2.06
2023-02-06T20:46:48.326Z,-2.10
2023-02-06T20:49:18.284Z,-2.17
2023-02-06T20:51:45.530Z,-2.19
2023-02-06T20:54:18.286Z,-2.20
2023-02-06T20:56:45.818Z,-2.13
2023-02-06T20:59:17.019Z,-2.24
2023-02-06T21:01:44.680Z,-2.17
2023-02-06T21:04:14.718Z,-2.31
2023-02-06T21:06:43.199Z,-2.21
2023-02-06T21:09:12.010Z,-2.20
2023-02-06T21:11:47.611Z,-2.36
2023-02-06T21:14:19.556Z,-2.31
2023-02-06T21:16:49.465Z,-2.41
2023-02-06T21:19:18.709Z,-2.37
2023-02-06T21:21:48.246Z,-2.47
2023-02-06T21:24:17.287Z,-2.58
2023-02-06T21:26:46.752Z,-2.58
2023-02-06T21:29:16.717Z,-2.93
2023-02-06T21:31:44.848Z,-2.73
2023-02-06T21:34:14.976Z,-2.71
2023-02-06T21:36:42.934Z,-2.57
2023-02-06T21:39:14.651Z,-2.72
2023-02-06T21:41:41.894Z,-2.62
2023-02-06T21:44:11.678Z,-2.62
2023-02-06T21:46:38.997Z,-2.60
2023-02-06T21:49:11.571Z,-2.79
2023-02-06T21:51:39.442Z,-2.93
2023-02-06T21:54:07.541Z,-2.78
2023-02-06T21:56:38.110Z,-2.79
2023-02-06T21:59:06.543Z,-2.68
2023-02-06T22:01:34.654Z,-2.76
2023-02-06T22:04:03.471Z,-2.71
2023-02-06T22:06:31.125Z,-2.64
2023-02-06T22:09:05.262Z,-2.60
2023-02-06T22:11:32.610Z,-2.55
2023-02-06T22:14:09.915Z,-2.50
2023-02-06T22:16:39.536Z,-2.66
2023-02-06T22:19:07.147Z,-2.57
2023-02-06T22:21:35.103Z,-2.44
2023-02-06T22:24:06.851Z,-2.54
2023-02-06T22:26:38.508Z,-2.45
2023-02-06T22:29:07.886Z,-2.48
2023-02-06T22:31:36.381Z,-2.40
2023-02-06T22:34:03.759Z,-2.41
2023-02-06T22:36:33.470Z,-2.51
2023-02-06T22:39:03.679Z,-2.44
2023-02-06T22:41:30.889Z,-2.50
2023-02-06T22:43:58.530Z,-2.47
2023-02-06T22:46:31.007Z,-2.45
2023-02-06T22:48:58.828Z,-2.52
2023-02-06T22:51:30.738Z,-2.41
2023-02-06T22:54:00.644Z,-2.55
2023-02-06T22:56:37.119Z,-2.47
2023-02-06T22:59:10.339Z,-2.47
2023-02-06T23:01:41.364Z,-2.47
2023-02-06T23:04:12.234Z,-2.45
2023-02-06T23:06:40.144Z,-2.54
2023-02-06T23:09:09.795Z,-2.54
2023-02-06T23:11:39.229Z,-2.71
2023-02-06T23:14:06.571Z,-2.65
2023-02-06T23:16:36.314Z,-2.65
2023-02-06T23:19:07.596Z,-2.68
2023-02-06T23:21:38.695Z,-2.72
2023-02-06T23:24:09.226Z,-2.88
2023-02-06T23:26:36.879Z,-2.66
2023-02-06T23:29:07.118Z,-2.66
2023-02-06T23:31:37.319Z,-2.81
2023-02-06T23:34:04.666Z,-2.81
2023-02-06T23:36:31.898Z,-2.81
2023-02-06T23:39:04.381Z,-2.82
2023-02-06T23:41:33.778Z,-2.83
2023-02-06T23:44:05.299Z,-2.78
2023-02-06T23:46:36.954Z,-2.86
2023-02-06T23:49:05.948Z,-2.90
2023-02-06T23:51:33.643Z,-2.86
2023-02-06T23:54:00.911Z,-2.88
2023-02-06T23:56:31.747Z,-2.93
2023-02-06T23:59:00.768Z,-2.96
